Main page
METAR-TAF:

METAR-TAF

Airports :

Ostend, Belgium

Ostend–Bruges International Airport

latitude: 51-12N, longitude: 002-52E, elevation: 4 m

Current weather observation

The report was made 23 minutes ago, at 06:50 UTC
Wind 8 kt from the East
Temperature 19°C
Humidity 68%
Pressure 1021 hPa
Visibility 10 km or more
no clouds below 1500 m and no cumulonimbus

METAR: EBOS 260650Z 10008KT CAVOK 19/13 Q1021 NOSIG

Time: 09:13 (07:13 UTC)

Forecast

The report was made 2 hours and 13 minutes ago, at 05:00 UTC
Forecast valid from 26 at 06 UTC to 27 at 12 UTC
Wind 10 kt from the East
Visibility 10 km or more
no clouds below 1500 m and no cumulonimbus
Probability 30% :
Temporary
from 26 at 13 UTC to 26 at 19 UTC
Wind 12 kt from the Northeast
Becoming
from 27 at 09 UTC to 27 at 11 UTC
Wind 10 kt from the South/Southeast

TAF: EBOS 260500Z 2606/2712 10010KT CAVOK PROB30 TEMPO 2613/2619 04012KT BECMG 2709/2711 16010KT

Weather observations and forecasts of more than 4000 airports (METAR and TAF reports).

The available stations are represented by yellow and red dots on the map.

Hover mouse over dot to see the name of the station.

Then click to see weather observations and forecasts.

To change the map : click on the green buttons with a black cross to zoom in, on the green button with a dash to zoom out, or on the green arrows for adjacent maps.


METAR-TAF: